sensor_id;sensor_type;location;lat;lon;timestamp;temperature;humidity
36716;DHT22;22699;51.034;3.730;2023-07-30T00:02:15;17.10;99.90
36716;DHT22;22699;51.034;3.730;2023-07-30T00:04:42;17.10;99.90
36716;DHT22;22699;51.034;3.730;2023-07-30T00:07:07;17.10;99.90
36716;DHT22;22699;51.034;3.730;2023-07-30T00:09:33;17.20;99.90
36716;DHT22;22699;51.034;3.730;2023-07-30T00:11:59;17.20;99.90
36716;DHT22;22699;51.034;3.730;2023-07-30T00:14:27;17.10;99.90
36716;DHT22;22699;51.034;3.730;2023-07-30T00:16:53;17.00;99.90
36716;DHT22;22699;51.034;3.730;2023-07-30T00:19:19;17.00;99.90
36716;DHT22;22699;51.034;3.730;2023-07-30T00:21:44;17.00;99.90
36716;DHT22;22699;51.034;3.730;2023-07-30T00:24:13;17.00;99.90
36716;DHT22;22699;51.034;3.730;2023-07-30T00:26:38;17.00;99.90
36716;DHT22;22699;51.034;3.730;2023-07-30T00:29:05;17.00;99.90
36716;DHT22;22699;51.034;3.730;2023-07-30T00:31:31;17.00;99.90
36716;DHT22;22699;51.034;3.730;2023-07-30T00:33:56;17.00;99.90
36716;DHT22;22699;51.034;3.730;2023-07-30T00:36:22;17.10;99.90
36716;DHT22;22699;51.034;3.730;2023-07-30T00:38:47;17.00;99.90
36716;DHT22;22699;51.034;3.730;2023-07-30T00:41:13;16.90;99.90
36716;DHT22;22699;51.034;3.730;2023-07-30T00:43:39;16.80;99.90
36716;DHT22;22699;51.034;3.730;2023-07-30T00:46:04;16.90;99.90
36716;DHT22;22699;51.034;3.730;2023-07-30T00:48:30;17.00;99.90
36716;DHT22;22699;51.034;3.730;2023-07-30T00:50:56;17.00;99.90
36716;DHT22;22699;51.034;3.730;2023-07-30T00:53:24;17.00;99.90
36716;DHT22;22699;51.034;3.730;2023-07-30T00:55:51;16.90;99.90
36716;DHT22;22699;51.034;3.730;2023-07-30T00:58:17;16.90;99.90
36716;DHT22;22699;51.034;3.730;2023-07-30T01:00:44;16.90;99.90
36716;DHT22;22699;51.034;3.730;2023-07-30T01:03:10;16.90;99.90
36716;DHT22;22699;51.034;3.730;2023-07-30T01:05:36;16.80;99.90
36716;DHT22;22699;51.034;3.730;2023-07-30T01:08:01;16.80;99.90
36716;DHT22;22699;51.034;3.730;2023-07-30T01:10:30;16.80;99.90
36716;DHT22;22699;51.034;3.730;2023-07-30T01:12:57;16.80;99.90
36716;DHT22;22699;51.034;3.730;2023-07-30T01:15:25;16.80;99.90
36716;DHT22;22699;51.034;3.730;2023-07-30T01:17:50;16.80;99.90
36716;DHT22;22699;51.034;3.730;2023-07-30T01:20:16;16.80;99.90
36716;DHT22;22699;51.034;3.730;2023-07-30T01:22:42;16.80;99.90
36716;DHT22;22699;51.034;3.730;2023-07-30T01:25:07;16.90;99.90
36716;DHT22;22699;51.034;3.730;2023-07-30T01:27:37;16.80;99.90
36716;DHT22;22699;51.034;3.730;2023-07-30T01:30:25;16.80;99.90
36716;DHT22;22699;51.034;3.730;2023-07-30T01:32:52;16.80;99.90
36716;DHT22;22699;51.034;3.730;2023-07-30T01:35:20;16.70;99.90
36716;DHT22;22699;51.034;3.730;2023-07-30T01:37:48;16.60;99.90
36716;DHT22;22699;51.034;3.730;2023-07-30T01:40:14;16.50;99.90
36716;DHT22;22699;51.034;3.730;2023-07-30T01:42:40;16.50;99.90
36716;DHT22;22699;51.034;3.730;2023-07-30T01:45:06;16.40;99.90
36716;DHT22;22699;51.034;3.730;2023-07-30T01:47:32;16.50;99.90
36716;DHT22;22699;51.034;3.730;2023-07-30T01:49:58;16.50;99.90
36716;DHT22;22699;51.034;3.730;2023-07-30T01:52:25;16.50;99.90
36716;DHT22;22699;51.034;3.730;2023-07-30T01:54:50;16.50;99.90
36716;DHT22;22699;51.034;3.730;2023-07-30T01:57:16;16.50;99.90
36716;DHT22;22699;51.034;3.730;2023-07-30T01:59:41;16.40;99.90
36716;DHT22;22699;51.034;3.730;2023-07-30T02:02:07;16.60;99.90
36716;DHT22;22699;51.034;3.730;2023-07-30T02:04:33;16.40;99.90
36716;DHT22;22699;51.034;3.730;2023-07-30T02:06:59;16.40;99.90
36716;DHT22;22699;51.034;3.730;2023-07-30T02:09:25;16.40;99.90
36716;DHT22;22699;51.034;3.730;2023-07-30T02:11:51;16.40;99.90
36716;DHT22;22699;51.034;3.730;2023-07-30T02:14:18;16.50;99.90
36716;DHT22;22699;51.034;3.730;2023-07-30T02:16:45;16.40;99.90
36716;DHT22;22699;51.034;3.730;2023-07-30T02:19:10;16.50;99.90
36716;DHT22;22699;51.034;3.730;2023-07-30T02:21:36;16.50;99.90
36716;DHT22;22699;51.034;3.730;2023-07-30T02:24:04;16.50;99.90
36716;DHT22;22699;51.034;3.730;2023-07-30T02:26:35;16.50;99.90
36716;DHT22;22699;51.034;3.730;2023-07-30T02:29:01;16.40;99.90
36716;DHT22;22699;51.034;3.730;2023-07-30T02:31:26;16.40;99.90
36716;DHT22;22699;51.034;3.730;2023-07-30T02:33:52;16.50;99.90
36716;DHT22;22699;51.034;3.730;2023-07-30T02:36:18;16.50;99.90
36716;DHT22;22699;51.034;3.730;2023-07-30T02:38:43;16.50;99.90
36716;DHT22;22699;51.034;3.730;2023-07-30T02:41:09;16.50;99.90
36716;DHT22;22699;51.034;3.730;2023-07-30T02:43:35;16.60;99.90
36716;DHT22;22699;51.034;3.730;2023-07-30T02:46:00;16.40;99.90
36716;DHT22;22699;51.034;3.730;2023-07-30T02:48:26;16.40;99.90
36716;DHT22;22699;51.034;3.730;2023-07-30T02:50:51;16.50;99.90
36716;DHT22;22699;51.034;3.730;2023-07-30T02:53:17;16.50;99.90
36716;DHT22;22699;51.034;3.730;2023-07-30T02:55:43;16.30;99.90
36716;DHT22;22699;51.034;3.730;2023-07-30T02:58:08;16.30;99.90
36716;DHT22;22699;51.034;3.730;2023-07-30T03:00:34;16.40;99.90
36716;DHT22;22699;51.034;3.730;2023-07-30T03:03:00;16.30;99.90
36716;DHT22;22699;51.034;3.730;2023-07-30T03:05:27;16.30;99.90
36716;DHT22;22699;51.034;3.730;2023-07-30T03:07:53;16.40;99.90
36716;DHT22;22699;51.034;3.730;2023-07-30T03:10:18;16.20;99.90
36716;DHT22;22699;51.034;3.730;2023-07-30T03:12:45;16.30;99.90
36716;DHT22;22699;51.034;3.730;2023-07-30T03:15:10;16.30;99.90
36716;DHT22;22699;51.034;3.730;2023-07-30T03:17:36;16.30;99.90
36716;DHT22;22699;51.034;3.730;2023-07-30T03:20:02;16.30;99.90
36716;DHT22;22699;51.034;3.730;2023-07-30T03:22:29;16.30;99.90
36716;DHT22;22699;51.034;3.730;2023-07-30T03:24:55;16.30;99.90
36716;DHT22;22699;51.034;3.730;2023-07-30T03:27:20;16.20;99.90
36716;DHT22;22699;51.034;3.730;2023-07-30T03:29:46;16.30;99.90
36716;DHT22;22699;51.034;3.730;2023-07-30T03:32:12;16.30;99.90
36716;DHT22;22699;51.034;3.730;2023-07-30T03:34:37;16.20;99.90
36716;DHT22;22699;51.034;3.730;2023-07-30T03:37:03;16.20;99.90
36716;DHT22;22699;51.034;3.730;2023-07-30T03:39:29;16.30;99.90
36716;DHT22;22699;51.034;3.730;2023-07-30T03:41:54;16.40;99.90
36716;DHT22;22699;51.034;3.730;2023-07-30T03:44:20;16.30;99.90
36716;DHT22;22699;51.034;3.730;2023-07-30T03:46:47;16.40;99.90
36716;DHT22;22699;51.034;3.730;2023-07-30T03:49:12;16.30;99.90
36716;DHT22;22699;51.034;3.730;2023-07-30T03:51:38;16.40;99.90
36716;DHT22;22699;51.034;3.730;2023-07-30T03:54:04;16.30;99.90
36716;DHT22;22699;51.034;3.730;2023-07-30T03:56:30;16.30;99.90
36716;DHT22;22699;51.034;3.730;2023-07-30T03:58:56;16.30;99.90
36716;DHT22;22699;51.034;3.730;2023-07-30T04:01:21;16.30;99.90
36716;DHT22;22699;51.034;3.730;2023-07-30T04:03:47;16.30;99.90
36716;DHT22;22699;51.034;3.730;2023-07-30T04:06:13;16.40;99.90
36716;DHT22;22699;51.034;3.730;2023-07-30T04:08:38;16.40;99.90
36716;DHT22;22699;51.034;3.730;2023-07-30T04:11:04;16.40;99.90
36716;DHT22;22699;51.034;3.730;2023-07-30T04:13:31;16.30;99.90
36716;DHT22;22699;51.034;3.730;2023-07-30T04:15:57;16.30;99.90
36716;DHT22;22699;51.034;3.730;2023-07-30T04:18:22;16.20;99.90
36716;DHT22;22699;51.034;3.730;2023-07-30T04:20:48;16.30;99.90
36716;DHT22;22699;51.034;3.730;2023-07-30T04:23:14;16.40;99.90
36716;DHT22;22699;51.034;3.730;2023-07-30T04:25:40;16.40;99.90
36716;DHT22;22699;51.034;3.730;2023-07-30T04:28:05;16.60;99.90
36716;DHT22;22699;51.034;3.730;2023-07-30T04:30:32;16.70;99.90
36716;DHT22;22699;51.034;3.730;2023-07-30T04:32:58;16.70;99.90
36716;DHT22;22699;51.034;3.730;2023-07-30T04:35:23;16.70;99.90
36716;DHT22;22699;51.034;3.730;2023-07-30T04:37:49;16.60;99.90
36716;DHT22;22699;51.034;3.730;2023-07-30T04:40:15;16.60;99.90
36716;DHT22;22699;51.034;3.730;2023-07-30T04:42:40;16.70;99.90
36716;DHT22;22699;51.034;3.730;2023-07-30T04:45:06;16.70;99.90
36716;DHT22;22699;51.034;3.730;2023-07-30T04:47:32;16.80;99.90
36716;DHT22;22699;51.034;3.730;2023-07-30T04:49:57;16.90;99.90
36716;DHT22;22699;51.034;3.730;2023-07-30T04:52:23;17.00;99.90
36716;DHT22;22699;51.034;3.730;2023-07-30T04:54:49;17.00;99.90
36716;DHT22;22699;51.034;3.730;2023-07-30T04:57:14;17.10;99.90
36716;DHT22;22699;51.034;3.730;2023-07-30T04:59:40;17.00;99.90
36716;DHT22;22699;51.034;3.730;2023-07-30T05:02:06;17.00;99.90
36716;DHT22;22699;51.034;3.730;2023-07-30T05:04:31;17.00;99.90
36716;DHT22;22699;51.034;3.730;2023-07-30T05:06:57;17.20;99.90
36716;DHT22;22699;51.034;3.730;2023-07-30T05:09:23;17.10;99.90
36716;DHT22;22699;51.034;3.730;2023-07-30T05:11:48;17.10;99.90
36716;DHT22;22699;51.034;3.730;2023-07-30T05:14:14;17.20;99.90
36716;DHT22;22699;51.034;3.730;2023-07-30T05:16:40;17.10;99.90
36716;DHT22;22699;51.034;3.730;2023-07-30T05:19:08;17.30;99.90
36716;DHT22;22699;51.034;3.730;2023-07-30T05:21:34;17.50;99.90
36716;DHT22;22699;51.034;3.730;2023-07-30T05:24:00;17.30;99.90
36716;DHT22;22699;51.034;3.730;2023-07-30T05:26:26;17.30;99.90
36716;DHT22;22699;51.034;3.730;2023-07-30T05:28:51;17.10;99.90
36716;DHT22;22699;51.034;3.730;2023-07-30T05:31:17;17.20;99.90
36716;DHT22;22699;51.034;3.730;2023-07-30T05:33:43;17.20;99.90
36716;DHT22;22699;51.034;3.730;2023-07-30T05:36:09;17.30;99.90
36716;DHT22;22699;51.034;3.730;2023-07-30T05:38:35;17.40;99.90
36716;DHT22;22699;51.034;3.730;2023-07-30T05:41:00;17.20;99.90
36716;DHT22;22699;51.034;3.730;2023-07-30T05:43:27;17.30;99.90
36716;DHT22;22699;51.034;3.730;2023-07-30T05:45:53;17.50;99.90
36716;DHT22;22699;51.034;3.730;2023-07-30T05:48:18;17.40;99.90
36716;DHT22;22699;51.034;3.730;2023-07-30T05:50:44;17.50;99.90
36716;DHT22;22699;51.034;3.730;2023-07-30T05:53:10;17.50;99.90
36716;DHT22;22699;51.034;3.730;2023-07-30T05:55:36;17.50;99.90
36716;DHT22;22699;51.034;3.730;2023-07-30T05:58:02;17.60;99.90
36716;DHT22;22699;51.034;3.730;2023-07-30T06:00:27;17.70;99.90
36716;DHT22;22699;51.034;3.730;2023-07-30T06:02:53;17.80;99.90
36716;DHT22;22699;51.034;3.730;2023-07-30T06:05:19;17.70;99.90
36716;DHT22;22699;51.034;3.730;2023-07-30T06:07:45;17.50;99.90
36716;DHT22;22699;51.034;3.730;2023-07-30T06:10:11;17.50;99.90
36716;DHT22;22699;51.034;3.730;2023-07-30T06:12:37;17.70;99.90
36716;DHT22;22699;51.034;3.730;2023-07-30T06:15:03;17.90;99.90
36716;DHT22;22699;51.034;3.730;2023-07-30T06:17:28;17.80;99.90
36716;DHT22;22699;51.034;3.730;2023-07-30T06:19:54;17.90;99.90
36716;DHT22;22699;51.034;3.730;2023-07-30T06:22:21;18.00;99.90
36716;DHT22;22699;51.034;3.730;2023-07-30T06:24:48;18.00;99.90
36716;DHT22;22699;51.034;3.730;2023-07-30T06:27:14;18.10;99.90
36716;DHT22;22699;51.034;3.730;2023-07-30T06:29:39;18.10;99.90
36716;DHT22;22699;51.034;3.730;2023-07-30T06:32:05;18.20;99.90
36716;DHT22;22699;51.034;3.730;2023-07-30T06:34:31;18.20;99.90
36716;DHT22;22699;51.034;3.730;2023-07-30T06:36:57;18.30;99.90
36716;DHT22;22699;51.034;3.730;2023-07-30T06:39:22;18.40;99.90
36716;DHT22;22699;51.034;3.730;2023-07-30T06:41:48;18.60;99.90
36716;DHT22;22699;51.034;3.730;2023-07-30T06:44:13;19.00;99.90
36716;DHT22;22699;51.034;3.730;2023-07-30T06:46:39;19.00;99.90
36716;DHT22;22699;51.034;3.730;2023-07-30T06:49:05;18.70;99.90
36716;DHT22;22699;51.034;3.730;2023-07-30T06:51:30;18.70;99.90
36716;DHT22;22699;51.034;3.730;2023-07-30T06:53:57;18.80;99.90
36716;DHT22;22699;51.034;3.730;2023-07-30T06:56:22;18.60;99.90
36716;DHT22;22699;51.034;3.730;2023-07-30T06:58:48;18.60;99.90
36716;DHT22;22699;51.034;3.730;2023-07-30T07:01:14;18.80;99.90
36716;DHT22;22699;51.034;3.730;2023-07-30T07:03:39;18.90;99.90
36716;DHT22;22699;51.034;3.730;2023-07-30T07:06:05;19.00;99.90
36716;DHT22;22699;51.034;3.730;2023-07-30T07:08:30;18.90;99.90
36716;DHT22;22699;51.034;3.730;2023-07-30T07:10:56;18.80;99.90
36716;DHT22;22699;51.034;3.730;2023-07-30T07:13:22;18.80;99.90
36716;DHT22;22699;51.034;3.730;2023-07-30T07:15:47;18.80;99.90
36716;DHT22;22699;51.034;3.730;2023-07-30T07:18:13;18.90;99.90
36716;DHT22;22699;51.034;3.730;2023-07-30T07:20:38;19.00;99.90
36716;DHT22;22699;51.034;3.730;2023-07-30T07:23:04;19.10;99.90
36716;DHT22;22699;51.034;3.730;2023-07-30T07:25:30;18.70;99.90
36716;DHT22;22699;51.034;3.730;2023-07-30T07:27:55;18.70;99.90
36716;DHT22;22699;51.034;3.730;2023-07-30T07:30:21;18.60;99.90
36716;DHT22;22699;51.034;3.730;2023-07-30T07:32:46;18.70;99.90
36716;DHT22;22699;51.034;3.730;2023-07-30T07:35:18;18.80;99.90
36716;DHT22;22699;51.034;3.730;2023-07-30T07:37:44;18.90;99.90
36716;DHT22;22699;51.034;3.730;2023-07-30T07:40:10;19.10;99.90
36716;DHT22;22699;51.034;3.730;2023-07-30T07:42:37;19.30;99.90
36716;DHT22;22699;51.034;3.730;2023-07-30T07:45:04;19.30;99.90
36716;DHT22;22699;51.034;3.730;2023-07-30T07:47:30;19.30;99.90
36716;DHT22;22699;51.034;3.730;2023-07-30T07:49:55;19.80;99.90
36716;DHT22;22699;51.034;3.730;2023-07-30T07:52:21;20.30;99.90
36716;DHT22;22699;51.034;3.730;2023-07-30T07:54:46;21.00;99.90
36716;DHT22;22699;51.034;3.730;2023-07-30T07:57:12;20.90;99.90
36716;DHT22;22699;51.034;3.730;2023-07-30T07:59:38;20.50;99.90
36716;DHT22;22699;51.034;3.730;2023-07-30T08:02:04;20.10;99.90
36716;DHT22;22699;51.034;3.730;2023-07-30T08:04:29;20.20;99.90
36716;DHT22;22699;51.034;3.730;2023-07-30T08:06:55;20.30;99.90
36716;DHT22;22699;51.034;3.730;2023-07-30T08:09:25;19.90;99.90
36716;DHT22;22699;51.034;3.730;2023-07-30T08:11:50;19.70;99.90
36716;DHT22;22699;51.034;3.730;2023-07-30T08:14:16;19.50;99.90
36716;DHT22;22699;51.034;3.730;2023-07-30T08:16:41;19.70;99.90
36716;DHT22;22699;51.034;3.730;2023-07-30T08:19:07;19.70;99.90
36716;DHT22;22699;51.034;3.730;2023-07-30T08:21:33;19.60;99.90
36716;DHT22;22699;51.034;3.730;2023-07-30T08:23:58;19.60;99.90
36716;DHT22;22699;51.034;3.730;2023-07-30T08:26:24;19.40;99.90
36716;DHT22;22699;51.034;3.730;2023-07-30T08:28:49;19.50;99.90
36716;DHT22;22699;51.034;3.730;2023-07-30T08:31:15;19.70;99.90
36716;DHT22;22699;51.034;3.730;2023-07-30T08:33:40;20.40;99.90
36716;DHT22;22699;51.034;3.730;2023-07-30T08:36:06;21.60;99.30
36716;DHT22;22699;51.034;3.730;2023-07-30T08:38:31;23.70;95.30
36716;DHT22;22699;51.034;3.730;2023-07-30T08:40:57;26.40;91.10
36716;DHT22;22699;51.034;3.730;2023-07-30T08:43:23;27.10;84.50
36716;DHT22;22699;51.034;3.730;2023-07-30T08:45:48;28.20;79.80
36716;DHT22;22699;51.034;3.730;2023-07-30T08:48:14;29.10;77.50
36716;DHT22;22699;51.034;3.730;2023-07-30T08:50:40;28.40;77.70
36716;DHT22;22699;51.034;3.730;2023-07-30T08:53:07;28.00;77.90
36716;DHT22;22699;51.034;3.730;2023-07-30T08:55:34;27.70;77.70
36716;DHT22;22699;51.034;3.730;2023-07-30T08:58:04;27.40;77.50
36716;DHT22;22699;51.034;3.730;2023-07-30T09:00:32;28.30;75.80
36716;DHT22;22699;51.034;3.730;2023-07-30T09:03:00;29.70;70.80
36716;DHT22;22699;51.034;3.730;2023-07-30T09:05:26;29.50;69.40
36716;DHT22;22699;51.034;3.730;2023-07-30T09:07:57;29.50;70.10
36716;DHT22;22699;51.034;3.730;2023-07-30T09:10:24;31.10;67.20
36716;DHT22;22699;51.034;3.730;2023-07-30T09:12:55;31.70;64.30
36716;DHT22;22699;51.034;3.730;2023-07-30T09:15:29;32.20;63.10
36716;DHT22;22699;51.034;3.730;2023-07-30T09:17:56;32.50;61.10
36716;DHT22;22699;51.034;3.730;2023-07-30T09:20:22;31.50;61.50
36716;DHT22;22699;51.034;3.730;2023-07-30T09:22:47;31.50;62.10
36716;DHT22;22699;51.034;3.730;2023-07-30T09:25:18;31.00;62.30
36716;DHT22;22699;51.034;3.730;2023-07-30T09:27:48;29.90;62.90
36716;DHT22;22699;51.034;3.730;2023-07-30T09:30:14;28.70;65.50
36716;DHT22;22699;51.034;3.730;2023-07-30T09:32:40;30.10;64.30
36716;DHT22;22699;51.034;3.730;2023-07-30T09:35:07;32.50;60.00
36716;DHT22;22699;51.034;3.730;2023-07-30T09:37:36;34.10;57.80
36716;DHT22;22699;51.034;3.730;2023-07-30T09:40:02;32.40;58.70
36716;DHT22;22699;51.034;3.730;2023-07-30T09:42:28;30.90;61.50
36716;DHT22;22699;51.034;3.730;2023-07-30T09:44:58;29.60;64.20
36716;DHT22;22699;51.034;3.730;2023-07-30T09:47:26;28.60;67.40
36716;DHT22;22699;51.034;3.730;2023-07-30T09:49:52;30.10;67.10
36716;DHT22;22699;51.034;3.730;2023-07-30T09:52:19;30.80;63.00
36716;DHT22;22699;51.034;3.730;2023-07-30T09:54:45;32.50;59.70
36716;DHT22;22699;51.034;3.730;2023-07-30T09:57:12;31.80;59.00
36716;DHT22;22699;51.034;3.730;2023-07-30T09:59:37;30.60;60.80
36716;DHT22;22699;51.034;3.730;2023-07-30T10:02:04;30.10;63.10
36716;DHT22;22699;51.034;3.730;2023-07-30T10:04:31;29.90;64.10
36716;DHT22;22699;51.034;3.730;2023-07-30T10:07:06;29.20;65.20
36716;DHT22;22699;51.034;3.730;2023-07-30T10:09:39;27.60;68.70
36716;DHT22;22699;51.034;3.730;2023-07-30T10:12:12;26.80;71.20
36716;DHT22;22699;51.034;3.730;2023-07-30T10:14:39;26.10;71.70
36716;DHT22;22699;51.034;3.730;2023-07-30T10:17:05;25.40;73.00
36716;DHT22;22699;51.034;3.730;2023-07-30T10:19:30;25.20;76.70
36716;DHT22;22699;51.034;3.730;2023-07-30T10:22:20;25.20;77.20
36716;DHT22;22699;51.034;3.730;2023-07-30T10:25:01;24.40;76.40
36716;DHT22;22699;51.034;3.730;2023-07-30T10:27:28;24.40;75.80
36716;DHT22;22699;51.034;3.730;2023-07-30T10:30:14;24.70;74.30
36716;DHT22;22699;51.034;3.730;2023-07-30T10:35:07;25.50;71.80
36716;DHT22;22699;51.034;3.730;2023-07-30T10:37:32;25.60;71.60
36716;DHT22;22699;51.034;3.730;2023-07-30T10:39:58;25.70;72.30
36716;DHT22;22699;51.034;3.730;2023-07-30T10:42:24;25.70;70.00
36716;DHT22;22699;51.034;3.730;2023-07-30T10:44:58;25.60;70.20
36716;DHT22;22699;51.034;3.730;2023-07-30T10:47:27;24.90;73.00
36716;DHT22;22699;51.034;3.730;2023-07-30T10:49:52;24.30;74.80
36716;DHT22;22699;51.034;3.730;2023-07-30T10:52:20;24.00;74.70
36716;DHT22;22699;51.034;3.730;2023-07-30T10:54:49;23.90;75.40
36716;DHT22;22699;51.034;3.730;2023-07-30T10:57:14;23.60;76.40
36716;DHT22;22699;51.034;3.730;2023-07-30T10:59:41;23.40;77.60
36716;DHT22;22699;51.034;3.730;2023-07-30T11:02:07;23.40;76.90
36716;DHT22;22699;51.034;3.730;2023-07-30T11:04:34;23.10;78.30
36716;DHT22;22699;51.034;3.730;2023-07-30T11:07:00;23.40;78.10
36716;DHT22;22699;51.034;3.730;2023-07-30T11:09:27;23.80;76.80
36716;DHT22;22699;51.034;3.730;2023-07-30T11:11:56;23.80;74.10
36716;DHT22;22699;51.034;3.730;2023-07-30T11:14:23;24.00;74.60
36716;DHT22;22699;51.034;3.730;2023-07-30T11:16:56;23.90;75.30
36716;DHT22;22699;51.034;3.730;2023-07-30T11:19:24;23.80;76.50
36716;DHT22;22699;51.034;3.730;2023-07-30T11:21:50;24.00;76.60
36716;DHT22;22699;51.034;3.730;2023-07-30T11:24:16;24.00;76.40
36716;DHT22;22699;51.034;3.730;2023-07-30T11:26:43;23.90;74.20
36716;DHT22;22699;51.034;3.730;2023-07-30T11:29:19;23.70;75.20
36716;DHT22;22699;51.034;3.730;2023-07-30T11:31:46;23.50;74.70
36716;DHT22;22699;51.034;3.730;2023-07-30T11:34:13;23.20;75.70
36716;DHT22;22699;51.034;3.730;2023-07-30T11:36:41;23.30;75.40
36716;DHT22;22699;51.034;3.730;2023-07-30T11:39:07;23.20;75.90
36716;DHT22;22699;51.034;3.730;2023-07-30T11:41:33;23.30;75.10
36716;DHT22;22699;51.034;3.730;2023-07-30T11:43:59;23.20;74.10
36716;DHT22;22699;51.034;3.730;2023-07-30T11:46:25;23.00;74.80
36716;DHT22;22699;51.034;3.730;2023-07-30T11:48:53;23.10;75.10
36716;DHT22;22699;51.034;3.730;2023-07-30T11:51:35;23.20;75.20
36716;DHT22;22699;51.034;3.730;2023-07-30T11:54:01;23.40;73.30
36716;DHT22;22699;51.034;3.730;2023-07-30T11:56:32;23.70;72.70
36716;DHT22;22699;51.034;3.730;2023-07-30T11:59:06;23.60;72.30
36716;DHT22;22699;51.034;3.730;2023-07-30T12:01:33;23.60;72.00
36716;DHT22;22699;51.034;3.730;2023-07-30T12:04:02;24.00;69.80
36716;DHT22;22699;51.034;3.730;2023-07-30T12:06:50;23.80;70.50
36716;DHT22;22699;51.034;3.730;2023-07-30T12:09:21;23.40;70.80
36716;DHT22;22699;51.034;3.730;2023-07-30T12:11:58;23.40;70.50
36716;DHT22;22699;51.034;3.730;2023-07-30T12:17:13;23.80;70.30
36716;DHT22;22699;51.034;3.730;2023-07-30T12:19:39;23.70;71.60
36716;DHT22;22699;51.034;3.730;2023-07-30T12:22:06;24.00;70.80
36716;DHT22;22699;51.034;3.730;2023-07-30T12:24:31;23.80;70.80
36716;DHT22;22699;51.034;3.730;2023-07-30T12:26:57;23.40;71.30
36716;DHT22;22699;51.034;3.730;2023-07-30T12:29:25;23.20;72.20
36716;DHT22;22699;51.034;3.730;2023-07-30T12:31:51;23.30;72.60
36716;DHT22;22699;51.034;3.730;2023-07-30T12:34:23;23.50;72.30
36716;DHT22;22699;51.034;3.730;2023-07-30T12:36:49;23.50;71.90
36716;DHT22;22699;51.034;3.730;2023-07-30T12:39:14;23.40;72.10
36716;DHT22;22699;51.034;3.730;2023-07-30T12:41:40;23.70;72.50
36716;DHT22;22699;51.034;3.730;2023-07-30T12:44:07;24.00;71.70
36716;DHT22;22699;51.034;3.730;2023-07-30T12:46:32;24.00;72.00
36716;DHT22;22699;51.034;3.730;2023-07-30T12:49:00;23.90;73.40
36716;DHT22;22699;51.034;3.730;2023-07-30T12:51:30;24.20;70.10
36716;DHT22;22699;51.034;3.730;2023-07-30T12:53:59;24.00;68.40
36716;DHT22;22699;51.034;3.730;2023-07-30T12:56:24;23.60;70.20
36716;DHT22;22699;51.034;3.730;2023-07-30T12:58:51;23.80;70.30
36716;DHT22;22699;51.034;3.730;2023-07-30T13:01:17;24.00;69.30
36716;DHT22;22699;51.034;3.730;2023-07-30T13:03:42;23.70;69.10
36716;DHT22;22699;51.034;3.730;2023-07-30T13:06:12;23.60;70.30
36716;DHT22;22699;51.034;3.730;2023-07-30T13:08:41;23.60;70.50
36716;DHT22;22699;51.034;3.730;2023-07-30T13:11:07;23.80;70.40
36716;DHT22;22699;51.034;3.730;2023-07-30T13:13:33;24.10;70.50
36716;DHT22;22699;51.034;3.730;2023-07-30T13:15:59;23.80;70.70
36716;DHT22;22699;51.034;3.730;2023-07-30T13:18:27;23.80;71.40
36716;DHT22;22699;51.034;3.730;2023-07-30T13:20:52;23.70;71.30
36716;DHT22;22699;51.034;3.730;2023-07-30T13:23:18;23.60;72.10
36716;DHT22;22699;51.034;3.730;2023-07-30T13:25:44;23.80;72.50
36716;DHT22;22699;51.034;3.730;2023-07-30T13:28:09;23.80;72.60
36716;DHT22;22699;51.034;3.730;2023-07-30T13:30:36;24.00;73.20
36716;DHT22;22699;51.034;3.730;2023-07-30T13:33:02;24.20;72.90
36716;DHT22;22699;51.034;3.730;2023-07-30T13:35:27;24.20;73.20
36716;DHT22;22699;51.034;3.730;2023-07-30T13:37:53;24.20;73.10
36716;DHT22;22699;51.034;3.730;2023-07-30T13:40:19;24.50;72.40
36716;DHT22;22699;51.034;3.730;2023-07-30T13:42:45;24.70;72.50
36716;DHT22;22699;51.034;3.730;2023-07-30T13:45:10;24.20;74.40
36716;DHT22;22699;51.034;3.730;2023-07-30T13:47:36;23.70;76.20
36716;DHT22;22699;51.034;3.730;2023-07-30T13:50:01;23.60;76.70
36716;DHT22;22699;51.034;3.730;2023-07-30T13:52:27;23.30;77.20
36716;DHT22;22699;51.034;3.730;2023-07-30T13:54:53;23.20;78.30
36716;DHT22;22699;51.034;3.730;2023-07-30T13:57:22;23.00;78.80
36716;DHT22;22699;51.034;3.730;2023-07-30T13:59:50;22.90;78.70
36716;DHT22;22699;51.034;3.730;2023-07-30T14:02:15;22.80;79.70
36716;DHT22;22699;51.034;3.730;2023-07-30T14:04:41;23.00;79.50
36716;DHT22;22699;51.034;3.730;2023-07-30T14:07:07;23.00;78.90
36716;DHT22;22699;51.034;3.730;2023-07-30T14:09:33;23.10;78.00
36716;DHT22;22699;51.034;3.730;2023-07-30T14:12:00;23.20;78.00
36716;DHT22;22699;51.034;3.730;2023-07-30T14:14:27;23.20;78.20
36716;DHT22;22699;51.034;3.730;2023-07-30T14:16:53;23.30;78.20
36716;DHT22;22699;51.034;3.730;2023-07-30T14:19:20;23.40;78.20
36716;DHT22;22699;51.034;3.730;2023-07-30T14:21:45;23.30;78.00
36716;DHT22;22699;51.034;3.730;2023-07-30T14:24:11;22.90;78.90
36716;DHT22;22699;51.034;3.730;2023-07-30T14:26:37;22.70;80.20
36716;DHT22;22699;51.034;3.730;2023-07-30T14:29:04;22.60;80.70
36716;DHT22;22699;51.034;3.730;2023-07-30T14:31:30;22.60;80.90
36716;DHT22;22699;51.034;3.730;2023-07-30T14:33:55;22.60;81.30
36716;DHT22;22699;51.034;3.730;2023-07-30T14:36:21;22.70;81.30
36716;DHT22;22699;51.034;3.730;2023-07-30T14:38:46;22.70;81.80
36716;DHT22;22699;51.034;3.730;2023-07-30T14:41:12;22.40;83.30
36716;DHT22;22699;51.034;3.730;2023-07-30T14:43:38;22.20;85.70
36716;DHT22;22699;51.034;3.730;2023-07-30T14:46:03;21.80;88.00
36716;DHT22;22699;51.034;3.730;2023-07-30T14:48:30;21.50;88.90
36716;DHT22;22699;51.034;3.730;2023-07-30T14:50:56;21.30;90.00
36716;DHT22;22699;51.034;3.730;2023-07-30T14:53:21;21.40;90.10
36716;DHT22;22699;51.034;3.730;2023-07-30T14:55:47;21.40;90.00
36716;DHT22;22699;51.034;3.730;2023-07-30T14:58:12;21.50;90.00
36716;DHT22;22699;51.034;3.730;2023-07-30T15:00:39;21.30;90.30
36716;DHT22;22699;51.034;3.730;2023-07-30T15:03:04;21.30;90.80
36716;DHT22;22699;51.034;3.730;2023-07-30T15:05:31;21.20;91.60
36716;DHT22;22699;51.034;3.730;2023-07-30T15:07:58;21.00;93.40
36716;DHT22;22699;51.034;3.730;2023-07-30T15:10:24;20.90;94.40
36716;DHT22;22699;51.034;3.730;2023-07-30T15:12:49;20.90;95.60
36716;DHT22;22699;51.034;3.730;2023-07-30T15:15:15;20.90;95.70
36716;DHT22;22699;51.034;3.730;2023-07-30T15:17:41;20.80;96.50
36716;DHT22;22699;51.034;3.730;2023-07-30T15:20:06;20.80;97.60
36716;DHT22;22699;51.034;3.730;2023-07-30T15:22:33;21.00;97.70
36716;DHT22;22699;51.034;3.730;2023-07-30T15:24:58;21.00;97.20
36716;DHT22;22699;51.034;3.730;2023-07-30T15:27:24;20.90;98.00
36716;DHT22;22699;51.034;3.730;2023-07-30T15:29:50;20.70;98.40
36716;DHT22;22699;51.034;3.730;2023-07-30T15:32:15;20.70;98.40